Time;durP1;ratioP1;P1;durP2;ratioP2;P2;SDS_P1;SDS_P2;PMS_P1;PMS_P2;Temp;Humidity;BMP_temperature;BMP_pressure;BME280_temperature;BME280_humidity;BME280_pressure;Samples;Min_cycle;Max_cycle;Signal;HPM_P1;HPM_P2
2023/04/08 00:01:46;;;;;;;;;;;;;;;18.80;61.58;101389.86;2296831;77;50008;-76
2023/04/08 00:04:47;;;;;;;;;;;;;;;18.79;61.63;101385.01;2296701;75;50349;-75
2023/04/08 00:07:49;;;;;;;;;;;;;;;18.78;61.64;101383.34;2316379;76;50297;-75
2023/04/08 00:10:50;;;;;;;;;;;;;;;18.74;61.69;101391.34;2296754;76;50893;-76
2023/04/08 00:13:52;;;;;;;;;;;;;;;18.71;61.80;101390.34;2296559;77;50603;-75
2023/04/08 00:16:53;;;;;;;;;;;;;;;18.69;61.86;101392.34;2316198;75;51520;-75
2023/04/08 00:19:55;;;;;;;;;;;;;;;18.65;61.95;101382.46;2296989;76;51285;-75
2023/04/08 00:22:57;;;;;;;;;;;;;;;18.63;62.29;101392.50;2296747;76;50080;-75
2023/04/08 00:25:58;;;;;;;;;;;;;;;18.64;62.41;101385.30;2296635;75;51382;-74
2023/04/08 00:29:00;;;;;;;;;;;;;;;18.69;62.32;101388.31;2333307;75;51387;-76
2023/04/08 00:32:02;;;;;;;;;;;;;;;18.76;62.14;101389.37;2316216;75;51400;-75
2023/04/08 00:35:04;;;;;;;;;;;;;;;18.78;61.96;101380.66;2296490;77;52531;-75
2023/04/08 00:38:06;;;;;;;;;;;;;;;18.79;61.91;101382.33;2273914;77;50040;-74
2023/04/08 00:41:08;;;;;;;;;;;;;;;18.79;61.88;101398.92;2272949;77;51461;-75
2023/04/08 00:44:10;;;;;;;;;;;;;;;18.77;61.90;101388.35;2304153;76;50175;-73
2023/04/08 00:47:12;;;;;;;;;;;;;;;18.75;61.92;101392.17;2309896;76;51100;-75
2023/04/08 00:50:13;;;;;;;;;;;;;;;18.71;61.99;101388.48;2337712;75;51431;-76
2023/04/08 00:53:15;;;;;;;;;;;;;;;18.68;62.09;101386.66;2333309;76;51494;-74
2023/04/08 00:56:17;;;;;;;;;;;;;;;18.65;62.42;101392.31;2331258;76;51492;-74
2023/04/08 00:59:18;;;;;;;;;;;;;;;18.63;62.65;101383.63;2285185;76;52339;-74
2023/04/08 01:02:31;;;;;;;;;;;;;;;18.64;62.62;101378.09;2293872;77;50282;-73
2023/04/08 01:05:37;;;;;;;;;;;;;;;18.69;62.45;101386.98;2293812;77;51430;-73
2023/04/08 01:08:39;;;;;;;;;;;;;;;18.76;62.23;101390.70;2293907;77;50159;-75
2023/04/08 01:11:42;;;;;;;;;;;;;;;18.81;62.08;101388.37;2272688;77;51588;-75
2023/04/08 01:14:44;;;;;;;;;;;;;;;18.84;61.90;101390.71;2293633;77;51527;-76
2023/04/08 01:17:45;;;;;;;;;;;;;;;18.84;61.87;101389.87;2293948;77;51535;-75
2023/04/08 01:20:47;;;;;;;;;;;;;;;18.82;61.87;101400.76;2293948;77;51592;-75
2023/04/08 01:24:08;;;;;;;;;;;;;;;18.80;61.92;101398.73;2272391;77;50850;-74
2023/04/08 01:27:10;;;;;;;;;;;;;;;18.76;62.00;101406.80;2307127;76;50263;-74
2023/04/08 01:30:12;;;;;;;;;;;;;;;18.73;62.08;101405.77;2310046;76;50311;-75
2023/04/08 01:33:15;;;;;;;;;;;;;;;18.69;62.17;101405.74;2294218;77;51503;-75
2023/04/08 01:36:16;;;;;;;;;;;;;;;18.66;62.54;101403.39;2274477;77;51675;-75
2023/04/08 01:39:18;;;;;;;;;;;;;;;18.66;62.68;101406.08;2305418;77;51269;-74
2023/04/08 01:42:20;;;;;;;;;;;;;;;18.68;62.68;101402.73;2305369;77;51384;-74
2023/04/08 01:45:22;;;;;;;;;;;;;;;18.75;62.53;101407.78;2305079;77;51552;-75
2023/04/08 01:48:24;;;;;;;;;;;;;;;18.79;62.29;101407.80;2285871;77;51495;-76
2023/04/08 01:51:26;;;;;;;;;;;;;;;18.80;62.16;101404.10;2326178;76;50335;-76
2023/04/08 01:54:28;;;;;;;;;;;;;;;18.79;62.16;101409.14;2344565;76;51453;-74
2023/04/08 01:57:31;;;;;;;;;;;;;;;18.77;62.21;101415.16;2327057;76;51459;-75
2023/04/08 02:00:33;;;;;;;;;;;;;;;18.77;62.28;101413.82;2319880;74;51657;-76
2023/04/08 02:03:35;;;;;;;;;;;;;;;18.74;62.39;101412.78;2305403;76;50640;-72
2023/04/08 02:06:37;;;;;;;;;;;;;;;18.71;62.41;101410.44;2305117;75;50602;-73
2023/04/08 02:09:38;;;;;;;;;;;;;;;18.67;62.65;101404.55;2305436;77;51388;-74
2023/04/08 02:12:40;;;;;;;;;;;;;;;18.64;62.81;101410.25;2285925;77;52271;-74
2023/04/08 02:15:42;;;;;;;;;;;;;;;18.65;62.97;101416.45;2285575;77;51492;-74
2023/04/08 02:18:45;;;;;;;;;;;;;;;18.70;62.82;101422.15;2305359;77;50390;-73
2023/04/08 02:21:47;;;;;;;;;;;;;;;18.77;62.63;101428.56;2305342;77;51553;-73
2023/04/08 02:24:48;;;;;;;;;;;;;;;18.81;62.40;101421.05;2285627;75;50879;-74
2023/04/08 02:27:50;;;;;;;;;;;;;;;18.81;62.36;101424.56;2318268;76;50189;-73
2023/04/08 02:30:51;;;;;;;;;;;;;;;18.80;62.33;101429.57;2337171;76;50567;-74
2023/04/08 02:33:53;;;;;;;;;;;;;;;18.78;62.35;101422.22;2344480;76;50285;-73
2023/04/08 02:36:55;;;;;;;;;;;;;;;18.77;62.42;101425.05;2351527;75;51403;-73
2023/04/08 02:39:56;;;;;;;;;;;;;;;18.74;62.47;101433.41;2344856;76;51327;-73
2023/04/08 02:42:58;;;;;;;;;;;;;;;18.71;62.55;101437.25;2344708;76;50579;-73
2023/04/08 02:46:01;;;;;;;;;;;;;;;18.67;62.71;101438.06;2344452;76;50193;-73
2023/04/08 02:49:03;;;;;;;;;;;;;;;18.65;62.88;101437.41;2324641;76;51684;-73
2023/04/08 02:52:05;;;;;;;;;;;;;;;18.67;63.00;101443.93;2344700;75;50254;-73
2023/04/08 02:55:08;;;;;;;;;;;;;;;18.72;62.95;101446.45;2344462;76;50585;-73
2023/04/08 02:58:10;;;;;;;;;;;;;;;18.78;62.75;101445.48;2334393;75;50747;-73
2023/04/08 03:01:12;;;;;;;;;;;;;;;18.84;62.54;101448.87;2308777;75;52455;-73
2023/04/08 03:04:13;;;;;;;;;;;;;;;18.86;62.36;101453.06;2285887;75;51383;-73
2023/04/08 03:07:15;;;;;;;;;;;;;;;18.85;62.31;101450.53;2285946;77;51367;-73
2023/04/08 03:10:16;;;;;;;;;;;;;;;18.81;62.33;101452.72;2316369;76;51356;-73
2023/04/08 03:13:18;;;;;;;;;;;;;;;18.79;62.39;101442.66;2338281;75;51059;-72
2023/04/08 03:16:20;;;;;;;;;;;;;;;18.76;62.46;101452.38;2351456;75;50372;-73
2023/04/08 03:19:21;;;;;;;;;;;;;;;18.74;62.57;101450.31;2351839;75;51506;-73
2023/04/08 03:22:23;;;;;;;;;;;;;;;18.72;62.60;101455.00;2344716;76;50193;-74
2023/04/08 03:25:25;;;;;;;;;;;;;;;18.69;62.76;101464.72;2324317;76;50898;-74
2023/04/08 03:28:26;;;;;;;;;;;;;;;18.66;63.04;101461.03;2344641;76;51610;-74
2023/04/08 03:31:28;;;;;;;;;;;;;;;18.71;62.90;101469.42;2351628;75;50071;-72
2023/04/08 03:34:30;;;;;;;;;;;;;;;18.75;62.73;101473.46;2351428;75;50248;-73
2023/04/08 03:37:32;;;;;;;;;;;;;;;18.82;62.49;101477.17;2317975;76;51088;-73
2023/04/08 03:40:33;;;;;;;;;;;;;;;18.82;62.36;101469.12;2304356;76;50292;-72
2023/04/08 03:43:35;;;;;;;;;;;;;;;18.81;62.34;101466.12;2320839;76;50219;-72
2023/04/08 03:46:37;;;;;;;;;;;;;;;18.79;62.38;101475.34;2335329;76;51523;-74
2023/04/08 03:49:39;;;;;;;;;;;;;;;18.76;62.44;101476.50;2335702;76;51157;-75
2023/04/08 03:52:40;;;;;;;;;;;;;;;18.75;62.56;101483.33;2335740;76;51391;-73
2023/04/08 03:55:42;;;;;;;;;;;;;;;18.72;62.63;101480.47;2335632;76;51361;-72
2023/04/08 03:58:43;;;;;;;;;;;;;;;18.68;62.67;101489.35;2321559;76;50342;-73
2023/04/08 04:01:46;;;;;;;;;;;;;;;18.66;62.96;101487.84;2309194;76;51166;-73
2023/04/08 04:04:48;;;;;;;;;;;;;;;18.67;63.05;101488.16;2321238;76;51515;-74
2023/04/08 04:07:49;;;;;;;;;;;;;;;18.69;63.02;101490.19;2321602;76;51401;-72
2023/04/08 04:10:51;;;;;;;;;;;;;;;18.76;63.07;101496.61;2324827;76;49929;-74
2023/04/08 04:13:52;;;;;;;;;;;;;;;18.81;62.79;101494.78;2293320;76;52308;-73
2023/04/08 04:16:54;;;;;;;;;;;;;;;18.84;62.56;101497.13;2270827;77;50174;-72
2023/04/08 04:19:56;;;;;;;;;;;;;;;18.83;62.27;101494.95;2282783;78;51349;-72
2023/04/08 04:22:57;;;;;;;;;;;;;;;18.83;62.04;101494.09;2282793;78;51436;-72
2023/04/08 04:25:59;;;;;;;;;;;;;;;18.81;61.83;101501.48;2234435;78;51628;-72
2023/04/08 04:29:01;;;;;;;;;;;;;;;18.78;61.58;101501.31;2270778;78;51390;-72
2023/04/08 04:32:02;;;;;;;;;;;;;;;18.75;61.43;101506.11;2282956;78;51433;-73
2023/04/08 04:35:04;;;;;;;;;;;;;;;18.70;61.15;101521.34;2282843;76;50201;-73
2023/04/08 04:38:11;;;;;;;;;;;;;;;18.66;61.26;101518.66;2283195;77;51380;-72
2023/04/08 04:41:09;;;;;;;;;;;;;;;18.66;61.17;101525.36;2291050;76;22633;-72
2023/04/08 04:44:10;;;;;;;;;;;;;;;18.69;61.14;101522.35;2287219;76;50383;-73
2023/04/08 04:47:12;;;;;;;;;;;;;;;18.73;60.65;101525.06;2283179;77;51505;-73
2023/04/08 04:50:14;;;;;;;;;;;;;;;18.80;60.39;101526.60;2271358;78;51514;-73
2023/04/08 04:53:15;;;;;;;;;;;;;;;18.82;60.18;101533.48;2271343;78;51546;-72
2023/04/08 04:56:17;;;;;;;;;;;;;;;18.83;60.03;101539.20;2270899;78;53397;-73
2023/04/08 04:59:19;;;;;;;;;;;;;;;18.82;59.96;101536.16;2283246;78;51455;-72
2023/04/08 05:02:20;;;;;;;;;;;;;;;18.79;59.96;101541.02;2254074;76;52538;-72
2023/04/08 05:05:22;;;;;;;;;;;;;;;18.76;59.84;101539.51;2271093;78;51447;-72
2023/04/08 05:08:24;;;;;;;;;;;;;;;18.73;59.75;101545.17;2278365;77;51560;-74
2023/04/08 05:11:25;;;;;;;;;;;;;;;18.68;59.75;101546.16;2298601;76;51365;-73
2023/04/08 05:14:29;;;;;;;;;;;;;;;18.65;59.85;101549.13;2282944;78;51311;-73
2023/04/08 05:17:30;;;;;;;;;;;;;;;18.62;59.96;101550.80;2286882;76;50948;-73
2023/04/08 05:20:32;;;;;;;;;;;;;;;18.63;59.95;101560.03;2285771;76;50730;-73
2023/04/08 05:23:36;;;;;;;;;;;;;;;18.68;59.57;101558.22;2283334;78;50675;-72
2023/04/08 05:26:38;;;;;;;;;;;;;;;18.74;59.35;101560.24;2270823;78;52585;-73
2023/04/08 05:29:40;;;;;;;;;;;;;;;18.82;59.15;101559.46;2294272;76;50271;-72
2023/04/08 05:32:41;;;;;;;;;;;;;;;18.84;59.15;101560.98;2299848;76;51553;-72
2023/04/08 05:35:43;;;;;;;;;;;;;;;18.83;59.21;101555.77;2286488;76;50204;-72
2023/04/08 05:38:45;;;;;;;;;;;;;;;18.80;59.29;101556.93;2290721;76;52489;-72
2023/04/08 05:41:46;;;;;;;;;;;;;;;18.77;59.40;101566.65;2319022;76;50673;-72
2023/04/08 05:44:48;;;;;;;;;;;;;;;18.75;59.45;101582.05;2331508;76;51532;-72
2023/04/08 05:47:49;;;;;;;;;;;;;;;18.71;59.49;101595.42;2327807;75;51399;-72
2023/04/08 05:50:51;;;;;;;;;;;;;;;18.67;59.51;101590.03;2260357;77;51169;-72
2023/04/08 05:53:53;;;;;;;;;;;;;;;18.64;59.70;101595.72;2271164;77;50264;-72
2023/04/08 05:56:54;;;;;;;;;;;;;;;18.63;59.76;101597.56;2292944;76;50185;-72
2023/04/08 05:59:56;;;;;;;;;;;;;;;18.68;59.70;101601.11;2334625;76;50705;-71
2023/04/08 06:02:57;;;;;;;;;;;;;;;18.74;59.52;101598.28;2309559;76;51095;-72
2023/04/08 06:05:59;;;;;;;;;;;;;;;18.79;59.43;101601.36;2285436;77;50321;-71
2023/04/08 06:09:01;;;;;;;;;;;;;;;18.84;59.29;101597.69;2290814;76;50391;-72
2023/04/08 06:12:02;;;;;;;;;;;;;;;18.87;59.25;101602.72;2314723;76;51444;-72
2023/04/08 06:15:05;;;;;;;;;;;;;;;18.85;59.21;101592.14;2274327;76;52512;-73
2023/04/08 06:18:06;;;;;;;;;;;;;;;18.84;59.19;101602.55;2281080;77;50729;-74
2023/04/08 06:21:08;;;;;;;;;;;;;;;18.82;59.22;101608.56;2304381;76;50546;-74
2023/04/08 06:24:10;;;;;;;;;;;;;;;18.81;59.24;101613.59;2318714;76;50320;-73
2023/04/08 06:27:12;;;;;;;;;;;;;;;18.80;59.18;101610.56;2255033;76;50900;-74
2023/04/08 06:30:13;;;;;;;;;;;;;;;18.78;59.18;101621.97;2340379;76;51502;-75
2023/04/08 06:33:15;;;;;;;;;;;;;;;18.77;59.24;101614.08;2314249;76;51443;-75
2023/04/08 06:36:16;;;;;;;;;;;;;;;18.76;59.24;101622.63;2308283;75;50333;-75
2023/04/08 06:39:20;;;;;;;;;;;;;;;18.81;59.11;101622.98;2295878;76;51213;-75
2023/04/08 06:42:21;;;;;;;;;;;;;;;18.88;58.97;101629.39;2293544;76;51549;-77
2023/04/08 06:45:23;;;;;;;;;;;;;;;18.91;58.85;101631.74;2340802;75;53281;-76
2023/04/08 06:48:29;;;;;;;;;;;;;;;18.91;58.78;101639.78;2326521;76;51498;-75
2023/04/08 06:51:30;;;;;;;;;;;;;;;18.90;58.79;101648.81;2300380;76;52405;-76
2023/04/08 06:54:32;;;;;;;;;;;;;;;18.86;58.89;101656.02;2334018;76;51403;-75
2023/04/08 06:57:34;;;;;;;;;;;;;;;18.83;58.95;101654.98;2334329;76;50607;-76
2023/04/08 07:00:35;;;;;;;;;;;;;;;18.78;59.05;101666.20;2300669;76;50168;-76
2023/04/08 07:03:37;;;;;;;;;;;;;;;18.75;59.07;101666.50;2303747;76;52396;-75
2023/04/08 07:06:39;;;;;;;;;;;;;;;18.72;59.13;101673.50;2303734;76;50596;-75
2023/04/08 07:09:44;;;;;;;;;;;;;;;18.74;59.18;101666.14;2331384;76;52252;-76
2023/04/08 07:12:44;;;;;;;;;;;;;;;18.75;59.17;101671.86;2326311;76;22380;-76
2023/04/08 07:15:45;;;;;;;;;;;;;;;18.83;58.99;101671.94;2277918;76;51326;-76
2023/04/08 07:18:47;;;;;;;;;;;;;;;18.88;58.87;101668.27;2337994;76;50662;-76
2023/04/08 07:21:49;;;;;;;;;;;;;;;18.93;58.69;101675.81;2336149;76;50542;-76
2023/04/08 07:24:50;;;;;;;;;;;;;;;18.95;58.66;101678.34;2300828;76;50234;-75
2023/04/08 07:27:52;;;;;;;;;;;;;;;18.91;58.63;101677.33;2279685;76;51626;-75
2023/04/08 07:30:54;;;;;;;;;;;;;;;18.89;58.66;101682.01;2303523;76;50589;-77
2023/04/08 07:33:55;;;;;;;;;;;;;;;18.87;58.71;101687.19;2334099;76;51415;-76
2023/04/08 07:36:57;;;;;;;;;;;;;;;18.84;58.73;101688.86;2334318;76;51447;-76
2023/04/08 07:39:58;;;;;;;;;;;;;;;18.79;58.85;101696.54;2282215;77;52325;-76
2023/04/08 07:43:00;;;;;;;;;;;;;;;18.78;58.81;101701.54;2294753;77;51491;-75
2023/04/08 07:46:02;;;;;;;;;;;;;;;18.78;58.88;101705.56;2296277;77;51374;-76
2023/04/08 07:49:04;;;;;;;;;;;;;;;18.79;58.87;101700.56;2292376;77;51552;-76
2023/04/08 07:52:05;;;;;;;;;;;;;;;18.80;58.79;101703.06;2292241;77;51407;-76
2023/04/08 07:55:07;;;;;;;;;;;;;;;18.87;58.65;101704.63;2296047;77;50659;-75
2023/04/08 07:58:09;;;;;;;;;;;;;;;18.90;58.58;101707.81;2296357;77;50483;-76
2023/04/08 08:01:16;;;;;;;;;;;;;;;18.92;58.45;101712.53;2292180;77;50279;-76
2023/04/08 08:04:18;;;;;;;;;;;;;;;18.94;58.38;101712.38;2269884;77;52382;-75
2023/04/08 08:07:20;;;;;;;;;;;;;;;18.92;58.37;101715.20;2292714;77;51420;-75
2023/04/08 08:10:21;;;;;;;;;;;;;;;18.89;58.40;101715.53;2295214;77;50291;-76
2023/04/08 08:13:23;;;;;;;;;;;;;;;18.84;58.52;101715.17;2294906;77;50067;-78
2023/04/08 08:16:26;;;;;;;;;;;;;;;18.85;58.44;101712.81;2270322;77;51557;-76
2023/04/08 08:19:28;;;;;;;;;;;;;;;18.79;58.57;101711.28;2292169;77;50592;-75
2023/04/08 08:22:29;;;;;;;;;;;;;;;18.75;58.71;101713.90;2292186;77;50342;-76
2023/04/08 08:25:31;;;;;;;;;;;;;;;18.76;58.71;101721.83;2291952;77;50227;-76
2023/04/08 08:28:32;;;;;;;;;;;;;;;18.78;58.66;101717.16;2270633;77;51403;-76
2023/04/08 08:31:34;;;;;;;;;;;;;;;18.82;58.59;101723.86;2296434;77;52218;-76
2023/04/08 08:34:37;;;;;;;;;;;;;;;18.90;58.40;101727.92;2292037;77;51379;-75
2023/04/08 08:37:39;;;;;;;;;;;;;;;18.91;58.30;101726.95;2292240;77;50680;-75
2023/04/08 08:40:40;;;;;;;;;;;;;;;18.91;58.26;101735.00;2311600;76;49949;-75
2023/04/08 08:43:43;;;;;;;;;;;;;;;18.92;58.20;101736.66;2308413;75;50212;-76
2023/04/08 08:46:45;;;;;;;;;;;;;;;18.85;58.23;101739.63;2296838;76;52476;-76
2023/04/08 08:49:47;;;;;;;;;;;;;;;18.81;58.30;101740.97;2297035;76;50698;-76
2023/04/08 08:52:50;;;;;;;;;;;;;;;18.81;58.30;101745.49;2275758;77;51136;-76
2023/04/08 08:55:52;;;;;;;;;;;;;;;18.79;58.25;101744.30;2275354;77;51522;-75
2023/04/08 08:58:53;;;;;;;;;;;;;;;18.78;58.29;101745.78;2297005;76;49979;-75
2023/04/08 09:01:55;;;;;;;;;;;;;;;18.79;58.32;101746.14;2297060;77;50628;-76
2023/04/08 09:04:58;;;;;;;;;;;;;;;18.82;58.33;101746.66;2250918;76;51269;-76
2023/04/08 09:08:00;;;;;;;;;;;;;;;18.87;58.21;101756.41;2296148;77;50138;-75
2023/04/08 09:11:12;;;;;;;;;;;;;;;18.90;58.07;101750.73;2311856;76;50181;-76
2023/04/08 09:14:18;;;;;;;;;;;;;;;18.91;57.92;101757.79;2296891;77;50390;-76
2023/04/08 09:17:33;;;;;;;;;;;;;;;18.89;57.94;101761.63;2260467;77;51731;-76
2023/04/08 09:20:35;;;;;;;;;;;;;;;18.88;57.94;101767.97;2275654;76;51522;-76
2023/04/08 09:23:41;;;;;;;;;;;;;;;18.83;57.99;101771.16;2296963;77;51381;-75
2023/04/08 09:26:44;;;;;;;;;;;;;;;18.80;58.06;101778.65;2296639;77;53774;-76
2023/04/08 09:29:46;;;;;;;;;;;;;;;18.75;58.09;101776.43;2275545;77;51750;-76
2023/04/08 09:32:48;;;;;;;;;;;;;;;18.72;58.15;101780.73;2275427;77;51409;-76
2023/04/08 09:35:50;;;;;;;;;;;;;;;18.74;58.07;101777.41;2275412;77;51315;-75
2023/04/08 09:38:51;;;;;;;;;;;;;;;18.72;58.17;101782.92;2297004;77;50359;-75
2023/04/08 09:41:53;;;;;;;;;;;;;;;18.76;58.06;101783.50;2299338;76;51126;-75
2023/04/08 09:44:55;;;;;;;;;;;;;;;18.82;57.95;101792.24;2296769;77;50176;-76
2023/04/08 09:47:59;;;;;;;;;;;;;;;18.88;57.81;101789.42;2296918;77;50675;-76
2023/04/08 09:51:01;;;;;;;;;;;;;;;18.91;57.71;101787.80;2296824;76;51469;-75
2023/04/08 09:54:02;;;;;;;;;;;;;;;18.97;57.51;101791.69;2275265;77;51701;-75
2023/04/08 09:57:05;;;;;;;;;;;;;;;18.97;57.42;101794.37;2296793;77;50087;-76
2023/04/08 10:00:08;;;;;;;;;;;;;;;18.95;57.46;101795.85;2296865;77;51502;-77
2023/04/08 10:03:10;;;;;;;;;;;;;;;18.92;57.52;101791.64;2297118;77;50746;-76
2023/04/08 10:06:12;;;;;;;;;;;;;;;18.89;57.59;101787.11;2275347;77;52361;-75
2023/04/08 10:09:13;;;;;;;;;;;;;;;18.83;57.72;101785.90;2275853;77;50190;-76
2023/04/08 10:12:15;;;;;;;;;;;;;;;18.82;57.71;101784.20;2310074;76;50195;-77
2023/04/08 10:15:27;;;;;;;;;;;;;;;18.79;57.79;101785.86;2296679;76;51465;-76
2023/04/08 10:18:32;;;;;;;;;;;;;;;18.79;57.86;101791.22;2296874;76;50378;-75
2023/04/08 10:21:46;;;;;;;;;;;;;;;18.84;57.69;101792.94;2263816;77;51737;-76
2023/04/08 10:24:44;;;;;;;;;;;;;;;18.87;57.65;101789.93;2263167;76;22354;-75
2023/04/08 10:27:46;;;;;;;;;;;;;;;18.89;57.52;101794.64;2293358;77;50725;-76
2023/04/08 10:30:48;;;;;;;;;;;;;;;18.89;57.49;101791.97;2263942;77;50188;-76
2023/04/08 10:33:50;;;;;;;;;;;;;;;18.86;57.53;101796.30;2239193;77;51868;-77
2023/04/08 10:36:52;;;;;;;;;;;;;;;18.85;57.55;101793.27;2263961;77;51260;-74
2023/04/08 10:39:53;;;;;;;;;;;;;;;18.81;57.67;101789.23;2296248;77;50638;-74
2023/04/08 10:42:55;;;;;;;;;;;;;;;18.79;57.71;101793.91;2317472;76;50345;-76
2023/04/08 10:45:57;;;;;;;;;;;;;;;18.74;57.75;101789.48;2319380;76;50619;-75
2023/04/08 10:49:01;;;;;;;;;;;;;;;18.75;57.77;101787.16;2319728;76;50598;-76
2023/04/08 10:52:05;;;;;;;;;;;;;;;18.77;57.73;101790.53;2295380;76;50089;-77
2023/04/08 10:55:07;;;;;;;;;;;;;;;18.83;57.63;101803.33;2319410;76;50905;-76
2023/04/08 10:58:08;;;;;;;;;;;;;;;18.87;57.53;101795.80;2319702;76;50618;-76
2023/04/08 11:01:10;;;;;;;;;;;;;;;18.91;57.38;101794.00;2295774;76;50614;-75
2023/04/08 11:04:15;;;;;;;;;;;;;;;18.95;57.22;101795.85;2320043;76;51456;-75
2023/04/08 11:07:19;;;;;;;;;;;;;;;18.96;57.18;101795.34;2319750;76;50368;-76
2023/04/08 11:10:20;;;;;;;;;;;;;;;18.95;57.17;101795.02;2295182;76;51689;-76
2023/04/08 11:13:26;;;;;;;;;;;;;;;18.90;57.24;101801.68;2289303;76;51373;-76
2023/04/08 11:16:26;;;;;;;;;;;;;;;18.87;57.29;101792.61;2318662;76;21741;-76
2023/04/08 11:19:28;;;;;;;;;;;;;;;18.84;57.33;101792.94;2319526;76;50754;-76
2023/04/08 11:22:32;;;;;;;;;;;;;;;18.81;57.42;101795.94;2295177;76;52370;-77
2023/04/08 11:25:33;;;;;;;;;;;;;;;18.77;57.47;101793.21;2319487;76;23314;-75
2023/04/08 11:28:35;;;;;;;;;;;;;;;18.77;57.51;101797.23;2319652;76;52480;-76
2023/04/08 11:31:36;;;;;;;;;;;;;;;18.78;57.52;101789.55;2319598;76;50259;-75
2023/04/08 11:34:39;;;;;;;;;;;;;;;18.85;57.37;101797.28;2295084;76;51776;-76
2023/04/08 11:37:41;;;;;;;;;;;;;;;18.90;57.21;101806.20;2295330;76;51578;-76
2023/04/08 11:40:44;;;;;;;;;;;;;;;18.90;57.19;101804.36;2316602;76;51375;-75
2023/04/08 11:43:52;;;;;;;;;;;;;;;18.90;57.10;101807.05;2311527;76;51390;-76
2023/04/08 11:46:56;;;;;;;;;;;;;;;18.87;57.18;101811.89;2335605;75;52290;-76
2023/04/08 11:49:57;;;;;;;;;;;;;;;18.84;57.19;101803.66;2321578;76;50244;-76
2023/04/08 11:52:59;;;;;;;;;;;;;;;18.82;57.24;101812.36;2321471;76;50253;-76
2023/04/08 11:56:02;;;;;;;;;;;;;;;18.78;57.28;101801.62;2321232;76;50587;-76
2023/04/08 11:59:04;;;;;;;;;;;;;;;18.77;57.35;101799.91;2309172;76;50943;-75
2023/04/08 12:02:05;;;;;;;;;;;;;;;18.75;57.41;101800.56;2335794;76;50209;-75
2023/04/08 12:05:07;;;;;;;;;;;;;;;18.78;57.41;101798.06;2321299;76;50624;-76
2023/04/08 12:08:09;;;;;;;;;;;;;;;18.82;57.27;101798.95;2335818;75;51927;-75
2023/04/08 12:11:11;;;;;;;;;;;;;;;18.91;57.04;101802.55;2300936;76;50969;-76
2023/04/08 12:14:13;;;;;;;;;;;;;;;18.96;56.86;101800.23;2297906;76;51490;-76
2023/04/08 12:17:14;;;;;;;;;;;;;;;18.97;56.78;101793.86;2283039;76;50215;-76
2023/04/08 12:20:16;;;;;;;;;;;;;;;18.98;56.79;101794.70;2283027;78;50365;-76
2023/04/08 12:23:18;;;;;;;;;;;;;;;18.96;56.85;101799.37;2270919;78;51104;-76
2023/04/08 12:26:19;;;;;;;;;;;;;;;18.92;56.87;101802.38;2270748;76;51394;-76
2023/04/08 12:29:21;;;;;;;;;;;;;;;18.87;56.98;101793.13;2271107;78;51431;-76
2023/04/08 12:32:24;;;;;;;;;;;;;;;18.85;56.96;101802.66;2270984;78;51476;-76
2023/04/08 12:35:25;;;;;;;;;;;;;;;18.79;57.06;101799.27;2270951;78;50980;-77
2023/04/08 12:38:27;;;;;;;;;;;;;;;18.81;57.06;101799.95;2270953;76;49917;-77
2023/04/08 12:41:29;;;;;;;;;;;;;;;18.89;56.96;101803.20;2284435;75;51520;-75
2023/04/08 12:44:31;;;;;;;;;;;;;;;18.92;56.77;101798.85;2294146;76;50676;-75
2023/04/08 12:47:32;;;;;;;;;;;;;;;18.95;56.61;101793.17;2246284;78;51569;-75
2023/04/08 12:50:34;;;;;;;;;;;;;;;18.95;56.55;101799.04;2271081;78;51512;-76
2023/04/08 12:53:35;;;;;;;;;;;;;;;18.90;56.61;101787.44;2271017;78;51443;-76
2023/04/08 12:56:38;;;;;;;;;;;;;;;18.87;56.70;101793.95;2270749;78;51368;-75
2023/04/08 12:59:39;;;;;;;;;;;;;;;18.82;56.69;101788.22;2246246;78;52564;-76
2023/04/08 13:02:41;;;;;;;;;;;;;;;18.81;56.76;101789.23;2282988;78;51420;-76
2023/04/08 13:05:43;;;;;;;;;;;;;;;18.78;56.73;101785.53;2270624;78;50624;-75
2023/04/08 13:08:46;;;;;;;;;;;;;;;18.77;56.79;101783.83;2282837;78;50195;-76
2023/04/08 13:11:47;;;;;;;;;;;;;;;18.75;56.94;101787.16;2291560;76;51839;-76
2023/04/08 13:14:49;;;;;;;;;;;;;;;18.80;56.70;101783.50;2270838;77;51355;-76
2023/04/08 13:17:51;;;;;;;;;;;;;;;18.89;56.53;101784.42;2271064;78;50714;-76
2023/04/08 13:20:53;;;;;;;;;;;;;;;18.95;56.25;101781.09;2283345;78;50703;-76
2023/04/08 13:23:55;;;;;;;;;;;;;;;18.95;56.26;101777.58;2235234;78;50950;-75
2023/04/08 13:26:57;;;;;;;;;;;;;;;18.93;56.24;101782.62;2283626;77;50540;-75
2023/04/08 13:29:58;;;;;;;;;;;;;;;18.95;56.27;101784.29;2283099;78;51431;-76
2023/04/08 13:33:00;;;;;;;;;;;;;;;18.94;56.23;101778.09;2271072;78;52318;-76
2023/04/08 13:36:02;;;;;;;;;;;;;;;18.93;56.15;101775.91;2234619;78;50911;-76
2023/04/08 13:39:03;;;;;;;;;;;;;;;18.89;56.24;101775.87;2283008;78;51455;-75
2023/04/08 13:42:05;;;;;;;;;;;;;;;18.87;56.29;101772.50;2298824;76;51431;-76
2023/04/08 13:45:07;;;;;;;;;;;;;;;18.88;56.34;101780.91;2251390;77;51446;-75
2023/04/08 13:48:08;;;;;;;;;;;;;;;18.88;56.28;101778.23;2222765;78;52591;-76
2023/04/08 13:51:10;;;;;;;;;;;;;;;18.87;56.38;101779.20;2246627;77;50209;-76
2023/04/08 13:54:11;;;;;;;;;;;;;;;18.89;56.32;101780.41;2276881;78;50359;-76
2023/04/08 13:57:13;;;;;;;;;;;;;;;18.86;56.28;101771.34;2246539;77;50108;-75
2023/04/08 14:00:15;;;;;;;;;;;;;;;18.83;56.38;101773.83;2246534;78;51621;-75
2023/04/08 14:03:17;;;;;;;;;;;;;;;18.85;56.30;101772.31;2277100;78;51454;-75
2023/04/08 14:06:19;;;;;;;;;;;;;;;18.83;56.32;101771.16;2246264;77;50589;-76
2023/04/08 14:09:20;;;;;;;;;;;;;;;18.83;56.34;101764.45;2290328;77;51375;-77
2023/04/08 14:12:22;;;;;;;;;;;;;;;18.82;56.41;101761.91;2256448;77;52659;-77
2023/04/08 14:15:23;;;;;;;;;;;;;;;18.82;56.49;101769.45;2313475;77;51443;-75
2023/04/08 14:18:25;;;;;;;;;;;;;;;18.83;56.46;101767.12;2282839;77;51561;-76
2023/04/08 14:21:26;;;;;;;;;;;;;;;18.87;56.45;101769.82;2313640;77;52341;-76
2023/04/08 14:24:28;;;;;;;;;;;;;;;18.91;56.46;101762.32;2281807;77;52356;-75
2023/04/08 14:27:30;;;;;;;;;;;;;;;18.92;56.45;101767.50;2313619;77;50254;-75
2023/04/08 14:30:31;;;;;;;;;;;;;;;18.95;56.37;101761.48;2313568;77;51474;-75
2023/04/08 14:33:33;;;;;;;;;;;;;;;18.90;56.44;101761.45;2282292;77;51672;-74
2023/04/08 14:36:35;;;;;;;;;;;;;;;18.95;56.42;101764.17;2256974;77;52261;-75
2023/04/08 14:39:36;;;;;;;;;;;;;;;18.92;56.52;101764.83;2272612;77;51444;-74
2023/04/08 14:42:38;;;;;;;;;;;;;;;18.98;56.48;101759.83;2297845;76;52378;-74
2023/04/08 14:45:39;;;;;;;;;;;;;;;18.93;56.54;101758.48;2270741;78;51395;-75
2023/04/08 14:48:41;;;;;;;;;;;;;;;18.84;57.00;101752.70;2270912;78;51612;-75
2023/04/08 14:51:43;;;;;;;;;;;;;;;18.90;56.91;101757.43;2270934;78;50779;-75
2023/04/08 14:54:45;;;;;;;;;;;;;;;18.93;56.75;101756.27;2282585;76;51443;-75
2023/04/08 14:57:47;;;;;;;;;;;;;;;18.89;56.88;101758.44;2282768;78;52046;-75
2023/04/08 15:00:49;;;;;;;;;;;;;;;18.89;56.92;101751.73;2270942;78;52452;-75
2023/04/08 15:03:50;;;;;;;;;;;;;;;18.87;56.94;101751.55;2282599;76;50690;-75
2023/04/08 15:06:52;;;;;;;;;;;;;;;18.87;56.88;101764.96;2270840;78;51312;-74
2023/04/08 15:09:55;;;;;;;;;;;;;;;18.85;56.85;101756.23;2295737;76;51449;-75
2023/04/08 15:12:56;;;;;;;;;;;;;;;18.84;56.91;101755.39;2280240;76;50625;-76
2023/04/08 15:15:58;;;;;;;;;;;;;;;18.80;56.98;101758.03;2295118;76;50625;-75
2023/04/08 15:18:59;;;;;;;;;;;;;;;18.86;56.86;101759.27;2319622;76;50592;-75
2023/04/08 15:22:01;;;;;;;;;;;;;;;18.82;56.91;101758.72;2319648;76;51474;-75
2023/04/08 15:25:04;;;;;;;;;;;;;;;18.86;56.91;101770.00;2269592;76;50944;-75
2023/04/08 15:28:05;;;;;;;;;;;;;;;18.89;56.85;101758.44;2319610;76;51520;-75
2023/04/08 15:31:07;;;;;;;;;;;;;;;18.88;56.93;101763.48;2294684;76;50681;-75
2023/04/08 15:34:09;;;;;;;;;;;;;;;18.90;56.91;101765.48;2294819;76;51568;-75